Time;durP1;ratioP1;P1;durP2;ratioP2;P2;SDS_P1;SDS_P2;PMS_P1;PMS_P2;Temp;Humidity;BMP_temperature;BMP_pressure;BME280_temperature;BME280_humidity;BME280_pressure;Samples;Min_cycle;Max_cycle;Signal;HPM_P1;HPM_P2
2023/07/17 00:00:51;;;;;;;6.70;6.20;;;19.50;99.90;;;;;;4941713;28;20222;-76
2023/07/17 00:03:17;;;;;;;6.73;6.23;;;19.50;99.90;;;;;;4942724;28;20201;-76
2023/07/17 00:05:44;;;;;;;6.97;6.37;;;19.60;99.90;;;;;;4947997;28;20294;-76
2023/07/17 00:08:11;;;;;;;7.40;6.70;;;19.50;99.90;;;;;;4954919;29;20688;-76
2023/07/17 00:10:38;;;;;;;6.60;6.10;;;19.50;99.90;;;;;;4946268;29;20262;-76
2023/07/17 00:13:05;;;;;;;6.70;5.90;;;19.50;99.90;;;;;;4943046;28;20235;-76
2023/07/17 00:15:33;;;;;;;6.50;5.90;;;19.40;99.90;;;;;;4937393;28;20242;-76
2023/07/17 00:18:00;;;;;;;5.27;4.77;;;19.40;99.90;;;;;;4941233;29;20597;-76
2023/07/17 00:20:27;;;;;;;6.47;5.87;;;19.30;99.90;;;;;;4948085;28;20323;-76
2023/07/17 00:22:54;;;;;;;6.50;6.00;;;19.30;99.90;;;;;;4945942;28;20215;-75
2023/07/17 00:25:21;;;;;;;7.40;6.80;;;19.30;99.90;;;;;;4949590;28;20206;-76
2023/07/17 00:27:48;;;;;;;3.63;3.30;;;19.20;99.90;;;;;;4949370;29;20229;-76
2023/07/17 00:30:15;;;;;;;3.77;3.37;;;19.20;99.90;;;;;;4942622;28;20212;-76
2023/07/17 00:32:43;;;;;;;3.77;3.13;;;19.10;99.90;;;;;;4932495;28;20669;-76
2023/07/17 00:35:10;;;;;;;6.60;5.87;;;19.10;99.90;;;;;;4945765;29;20212;-76
2023/07/17 00:37:37;;;;;;;5.07;4.63;;;19.10;99.90;;;;;;4946483;28;20200;-76
2023/07/17 00:40:07;;;;;;;5.17;3.43;;;19.10;99.90;;;;;;4942875;28;20226;-75
2023/07/17 00:42:33;;;;;;;3.93;3.43;;;19.10;99.90;;;;;;4946644;28;20200;-76
2023/07/17 00:45:01;;;;;;;3.93;3.30;;;19.20;99.90;;;;;;4943934;28;20212;-76
2023/07/17 00:47:28;;;;;;;4.07;3.20;;;19.20;99.90;;;;;;4946943;28;20730;-75
2023/07/17 00:49:56;;;;;;;5.10;3.10;;;19.20;99.90;;;;;;4952997;29;20243;-76
2023/07/17 00:52:24;;;;;;;4.27;3.40;;;19.30;99.90;;;;;;4947602;28;20207;-74
2023/07/17 00:54:51;;;;;;;5.93;3.30;;;19.30;99.90;;;;;;4947595;29;20632;-76
2023/07/17 00:57:20;;;;;;;3.73;2.90;;;19.30;99.90;;;;;;4942265;28;20207;-75
2023/07/17 00:59:48;;;;;;;3.47;3.17;;;19.30;99.90;;;;;;4943737;28;20234;-75
2023/07/17 01:02:16;;;;;;;3.17;2.87;;;19.30;99.90;;;;;;4942881;28;20208;-76
2023/07/17 01:04:45;;;;;;;5.83;3.03;;;19.30;99.90;;;;;;4943093;28;20210;-76
2023/07/17 01:07:15;;;;;;;4.70;3.50;;;19.30;99.90;;;;;;4945251;29;20212;-75
2023/07/17 01:09:42;;;;;;;3.60;3.07;;;19.30;99.90;;;;;;4948401;28;20600;-75
2023/07/17 01:12:10;;;;;;;6.47;3.20;;;19.30;99.90;;;;;;4951454;29;20293;-76
2023/07/17 01:14:36;;;;;;;3.97;2.90;;;19.30;99.90;;;;;;4943324;29;20221;-76
2023/07/17 01:17:03;;;;;;;3.90;3.13;;;19.30;99.90;;;;;;4939578;28;20206;-76
2023/07/17 01:19:30;;;;;;;3.63;3.10;;;19.30;99.90;;;;;;4948077;28;20241;-75
2023/07/17 01:22:00;;;;;;;3.50;2.77;;;19.30;99.90;;;;;;4944807;28;20721;-76
2023/07/17 01:24:28;;;;;;;3.77;2.90;;;19.30;99.90;;;;;;4943865;28;20221;-76
2023/07/17 01:26:56;;;;;;;5.50;3.27;;;19.30;99.90;;;;;;4933251;28;20203;-76
2023/07/17 01:29:23;;;;;;;3.83;3.13;;;19.30;99.90;;;;;;4948774;28;20221;-76
2023/07/17 01:31:51;;;;;;;3.80;2.90;;;19.30;99.90;;;;;;4947564;29;20202;-76
2023/07/17 01:34:17;;;;;;;3.57;3.20;;;19.30;99.90;;;;;;4939666;28;20209;-75
2023/07/17 01:36:44;;;;;;;3.77;2.97;;;19.20;99.90;;;;;;4946447;28;20739;-76
2023/07/17 01:39:11;;;;;;;3.40;3.00;;;19.20;99.90;;;;;;4945151;28;20597;-76
2023/07/17 01:41:39;;;;;;;3.43;3.00;;;19.20;99.90;;;;;;4944469;28;20301;-76
2023/07/17 01:44:06;;;;;;;4.27;2.90;;;19.20;99.90;;;;;;4943438;28;20288;-76
2023/07/17 01:46:33;;;;;;;5.40;3.20;;;19.20;99.90;;;;;;4937541;28;20210;-75
2023/07/17 01:49:00;;;;;;;3.03;2.73;;;19.20;99.90;;;;;;4942005;29;20225;-76
2023/07/17 01:51:27;;;;;;;3.90;2.70;;;19.30;99.90;;;;;;4953717;28;20206;-76
2023/07/17 01:53:54;;;;;;;6.37;3.47;;;19.30;99.90;;;;;;4946393;29;20684;-76
2023/07/17 01:56:21;;;;;;;5.43;3.30;;;19.20;99.90;;;;;;4934658;28;20201;-75
2023/07/17 01:58:49;;;;;;;4.43;3.33;;;19.20;99.90;;;;;;4942022;28;20732;-74
2023/07/17 02:01:16;;;;;;;3.90;2.90;;;19.20;99.90;;;;;;4941337;28;20246;-76
2023/07/17 02:03:43;;;;;;;6.40;3.63;;;19.20;99.90;;;;;;4944903;28;20671;-76
2023/07/17 02:06:10;;;;;;;3.97;3.33;;;19.20;99.90;;;;;;4943416;29;20210;-76
2023/07/17 02:08:36;;;;;;;4.20;3.37;;;19.20;99.90;;;;;;4945291;29;20249;-75
2023/07/17 02:11:03;;;;;;;3.93;2.80;;;19.20;99.90;;;;;;4948812;29;20671;-76
2023/07/17 02:13:30;;;;;;;4.60;3.47;;;19.10;99.90;;;;;;4944105;28;20201;-75
2023/07/17 02:15:58;;;;;;;4.63;3.27;;;19.20;99.90;;;;;;4940852;28;20224;-75
2023/07/17 02:18:25;;;;;;;4.77;3.53;;;19.20;99.90;;;;;;4923567;29;20195;-76
2023/07/17 02:20:52;;;;;;;4.10;3.20;;;19.10;99.90;;;;;;4940887;28;20218;-75
2023/07/17 02:23:19;;;;;;;4.50;3.23;;;19.10;99.90;;;;;;4943541;29;20199;-75
2023/07/17 02:25:46;;;;;;;4.47;3.77;;;19.10;99.90;;;;;;4941202;28;20294;-76
2023/07/17 02:28:14;;;;;;;9.37;3.90;;;19.10;99.90;;;;;;4941377;29;20208;-76
2023/07/17 02:30:41;;;;;;;6.17;3.90;;;19.10;99.90;;;;;;4940205;28;20208;-76
2023/07/17 02:33:10;;;;;;;5.00;3.43;;;19.10;99.90;;;;;;4938935;28;20272;-76
2023/07/17 02:35:37;;;;;;;5.10;3.43;;;19.00;99.90;;;;;;4943664;28;20213;-76
2023/07/17 02:38:03;;;;;;;6.27;3.67;;;19.00;99.90;;;;;;4940135;29;20273;-76
2023/07/17 02:40:30;;;;;;;4.13;3.33;;;18.90;99.90;;;;;;4951102;28;20224;-75
2023/07/17 02:42:57;;;;;;;4.90;3.93;;;18.90;99.90;;;;;;4947169;29;20197;-75
2023/07/17 02:45:25;;;;;;;6.67;3.20;;;18.90;99.90;;;;;;4931132;28;20756;-75
2023/07/17 02:47:52;;;;;;;6.70;5.30;;;18.80;99.90;;;;;;4936267;29;20580;-76
2023/07/17 02:50:20;;;;;;;8.30;6.03;;;18.80;99.90;;;;;;4937731;28;20233;-76
2023/07/17 02:52:47;;;;;;;7.20;6.60;;;18.70;99.90;;;;;;4931937;28;20209;-82
2023/07/17 02:55:14;;;;;;;4.50;3.80;;;18.70;99.90;;;;;;4933198;29;20752;-84
2023/07/17 02:57:41;;;;;;;4.20;3.13;;;18.60;99.90;;;;;;4935516;29;20228;-77
2023/07/17 03:00:11;;;;;;;5.23;4.50;;;18.70;99.90;;;;;;4929150;29;20225;-76
2023/07/17 03:02:39;;;;;;;4.23;3.80;;;18.70;99.90;;;;;;4931172;29;20225;-78
2023/07/17 03:05:08;;;;;;;3.80;3.40;;;18.70;99.90;;;;;;4931023;29;20210;-78
2023/07/17 03:07:38;;;;;;;4.10;3.27;;;18.70;99.90;;;;;;4935156;29;20264;-77
2023/07/17 03:10:06;;;;;;;4.00;3.30;;;18.80;99.90;;;;;;4933491;29;20232;-78
2023/07/17 03:12:33;;;;;;;6.50;5.83;;;18.80;99.90;;;;;;4933706;29;20193;-77
2023/07/17 03:15:04;;;;;;;6.63;6.03;;;18.80;99.90;;;;;;4929330;29;20256;-76
2023/07/17 03:17:32;;;;;;;6.10;5.60;;;18.80;99.90;;;;;;4921221;29;20657;-77
2023/07/17 03:19:59;;;;;;;6.50;5.90;;;18.80;99.90;;;;;;4933818;29;20594;-78
2023/07/17 03:22:27;;;;;;;6.90;6.30;;;18.80;99.90;;;;;;4958774;29;20317;-79
2023/07/17 03:24:55;;;;;;;7.33;6.63;;;18.80;99.90;;;;;;4951401;29;20691;-78
2023/07/17 03:27:23;;;;;;;6.57;5.97;;;18.80;99.90;;;;;;4952568;28;20216;-78
2023/07/17 03:29:50;;;;;;;6.17;5.50;;;18.70;99.90;;;;;;4945241;28;20721;-78
2023/07/17 03:32:17;;;;;;;6.50;6.00;;;18.60;99.90;;;;;;4947740;28;20202;-78
2023/07/17 03:34:44;;;;;;;7.23;5.93;;;18.60;99.90;;;;;;4952019;28;20258;-78
2023/07/17 03:37:12;;;;;;;7.10;6.40;;;18.70;99.90;;;;;;4944657;29;20204;-78
2023/07/17 03:39:40;;;;;;;6.77;6.17;;;18.60;99.90;;;;;;4947642;29;20312;-78
2023/07/17 03:42:11;;;;;;;7.03;6.43;;;18.60;99.90;;;;;;4946125;29;20224;-78
2023/07/17 03:44:38;;;;;;;6.67;6.17;;;18.60;99.90;;;;;;4950017;29;20286;-78
2023/07/17 03:47:06;;;;;;;8.13;7.33;;;18.50;99.90;;;;;;4954558;29;20208;-78
2023/07/17 03:49:35;;;;;;;8.37;7.57;;;18.50;99.90;;;;;;4941824;28;20243;-79
2023/07/17 03:52:02;;;;;;;7.53;6.93;;;18.40;99.90;;;;;;4950892;28;20679;-78
2023/07/17 03:54:29;;;;;;;8.50;7.80;;;18.40;99.90;;;;;;4957702;29;20214;-78
2023/07/17 03:56:56;;;;;;;7.93;7.23;;;18.30;99.90;;;;;;4943289;29;20204;-78
2023/07/17 03:59:26;;;;;;;3.33;3.03;;;18.30;99.90;;;;;;4950248;28;20228;-78
2023/07/17 04:01:54;;;;;;;3.87;3.07;;;18.30;99.90;;;;;;4952769;28;20222;-77
2023/07/17 04:04:21;;;;;;;7.47;6.97;;;18.30;99.90;;;;;;4957646;28;20254;-78
2023/07/17 04:06:48;;;;;;;7.47;6.77;;;18.20;99.90;;;;;;4954414;28;20206;-78
2023/07/17 04:09:16;;;;;;;7.07;6.43;;;18.20;99.90;;;;;;4951371;28;20229;-78
2023/07/17 04:11:45;;;;;;;7.43;6.87;;;18.20;99.90;;;;;;4956132;28;20244;-79
2023/07/17 04:14:14;;;;;;;7.20;6.70;;;18.30;99.90;;;;;;4956982;29;20214;-78
2023/07/17 04:16:42;;;;;;;7.57;7.00;;;18.30;99.90;;;;;;4948921;28;20216;-78
2023/07/17 04:19:10;;;;;;;8.13;7.53;;;18.40;99.90;;;;;;4955699;28;20222;-78
2023/07/17 04:21:37;;;;;;;8.00;7.40;;;18.50;99.90;;;;;;4950169;29;20243;-78
2023/07/17 04:24:04;;;;;;;8.07;7.37;;;18.50;99.90;;;;;;4956694;28;20665;-78
2023/07/17 04:26:41;;;;;;;6.10;5.60;;;18.60;99.90;;;;;;4952427;28;20209;-78
2023/07/17 04:29:10;;;;;;;4.40;3.50;;;18.70;99.90;;;;;;4949012;28;20224;-78
2023/07/17 04:31:37;;;;;;;8.40;7.70;;;18.70;99.90;;;;;;4935985;29;20247;-78
2023/07/17 04:34:06;;;;;;;8.17;7.57;;;18.80;99.90;;;;;;4954189;29;20219;-78
2023/07/17 04:36:33;;;;;;;7.77;7.17;;;18.90;99.90;;;;;;4961128;29;20231;-78
2023/07/17 04:39:00;;;;;;;7.57;7.00;;;18.90;99.90;;;;;;4955361;28;20219;-78
2023/07/17 04:41:27;;;;;;;8.00;7.40;;;19.00;99.90;;;;;;4945386;28;20232;-78
2023/07/17 04:43:54;;;;;;;8.10;7.50;;;19.00;99.90;;;;;;4953190;28;20203;-79
2023/07/17 04:46:21;;;;;;;8.13;7.50;;;19.10;99.90;;;;;;4953779;28;20257;-79
2023/07/17 04:48:48;;;;;;;8.77;8.07;;;19.20;99.90;;;;;;4957656;28;20292;-79
2023/07/17 04:51:17;;;;;;;8.00;7.40;;;19.30;99.90;;;;;;4952285;29;20200;-79
2023/07/17 04:53:44;;;;;;;3.63;3.33;;;19.40;99.90;;;;;;4966244;28;20253;-79
2023/07/17 04:56:11;;;;;;;3.57;3.23;;;19.50;99.90;;;;;;4957093;29;20208;-78
2023/07/17 04:58:38;;;;;;;4.13;3.73;;;19.60;99.90;;;;;;4951339;28;20253;-78
2023/07/17 05:01:05;;;;;;;6.73;6.13;;;20.00;99.90;;;;;;4943308;28;20656;-79
2023/07/17 05:03:33;;;;;;;7.13;5.90;;;20.20;99.90;;;;;;4947864;29;20203;-78
2023/07/17 05:06:01;;;;;;;4.80;4.40;;;20.30;99.90;;;;;;4955894;28;20206;-78
2023/07/17 05:08:29;;;;;;;4.40;3.93;;;20.30;99.90;;;;;;4946159;28;20685;-79
2023/07/17 05:10:57;;;;;;;6.27;5.67;;;20.20;99.90;;;;;;4955676;28;20207;-78
2023/07/17 05:13:28;;;;;;;7.23;3.70;;;20.20;99.90;;;;;;4960645;29;20303;-79
2023/07/17 05:15:56;;;;;;;8.93;7.90;;;20.50;99.90;;;;;;4952899;29;20204;-79
2023/07/17 05:18:24;;;;;;;6.37;4.83;;;20.60;99.90;;;;;;4942937;28;20234;-79
2023/07/17 05:20:52;;;;;;;8.83;8.03;;;20.80;99.90;;;;;;4951170;28;20202;-79
2023/07/17 05:23:19;;;;;;;7.80;7.10;;;20.80;99.90;;;;;;4957101;28;20214;-79
2023/07/17 05:26:00;;;;;;;7.40;6.80;;;20.90;99.90;;;;;;4955829;29;20206;-79
2023/07/17 05:28:28;;;;;;;8.57;7.87;;;21.00;99.90;;;;;;4958256;28;20207;-79
2023/07/17 05:30:57;;;;;;;8.60;7.90;;;21.10;99.90;;;;;;4959440;28;20226;-79
2023/07/17 05:33:25;;;;;;;5.73;5.10;;;21.10;99.90;;;;;;4960132;29;20202;-78
2023/07/17 05:35:52;;;;;;;7.20;6.60;;;21.20;99.90;;;;;;4952428;28;20217;-79
2023/07/17 05:38:21;;;;;;;7.20;6.60;;;21.20;99.90;;;;;;4949418;28;20213;-79
2023/07/17 05:40:49;;;;;;;4.50;3.43;;;21.30;99.90;;;;;;4959916;28;20191;-79
2023/07/17 05:43:17;;;;;;;7.93;7.33;;;21.50;99.90;;;;;;4956980;28;20218;-79
2023/07/17 05:45:57;;;;;;;5.37;4.90;;;21.70;99.90;;;;;;4943284;29;20199;-79
2023/07/17 05:48:24;;;;;;;7.97;7.37;;;22.00;99.90;;;;;;4952855;28;20232;-79
2023/07/17 05:50:51;;;;;;;8.33;7.60;;;22.30;99.90;;;;;;4957557;28;20204;-79
2023/07/17 05:53:18;;;;;;;6.47;5.87;;;22.70;99.90;;;;;;4956255;29;20201;-79
2023/07/17 05:55:46;;;;;;;6.40;5.90;;;23.30;99.90;;;;;;4947616;29;20206;-79
2023/07/17 05:58:13;;;;;;;7.20;6.50;;;23.90;99.90;;;;;;4955792;28;20209;-79
2023/07/17 06:00:41;;;;;;;8.80;6.70;;;24.40;99.90;;;;;;4954984;28;20191;-80
2023/07/17 06:03:08;;;;;;;7.40;6.00;;;24.90;99.90;;;;;;4957382;28;20226;-80
2023/07/17 06:05:37;;;;;;;5.57;5.00;;;25.40;99.90;;;;;;4947358;28;20252;-79
2023/07/17 06:08:05;;;;;;;8.33;7.53;;;25.80;99.90;;;;;;4953757;28;20222;-78
2023/07/17 06:10:31;;;;;;;8.30;7.60;;;26.20;99.90;;;;;;4949897;28;20677;-79
2023/07/17 06:12:58;;;;;;;7.30;6.77;;;26.50;99.90;;;;;;4948105;28;20225;-79
2023/07/17 06:15:25;;;;;;;10.97;9.80;;;26.50;99.90;;;;;;4955491;29;20253;-79
2023/07/17 06:17:53;;;;;;;8.03;7.30;;;26.00;99.90;;;;;;4948723;28;20625;-79
2023/07/17 06:20:20;;;;;;;7.93;7.23;;;25.50;99.90;;;;;;4948525;28;20598;-79
2023/07/17 06:22:47;;;;;;;6.67;6.17;;;24.90;99.90;;;;;;4950515;28;20779;-77
2023/07/17 06:25:14;;;;;;;8.07;7.30;;;24.60;99.90;;;;;;4946292;28;20208;-77
2023/07/17 06:27:41;;;;;;;6.27;5.70;;;24.60;99.90;;;;;;4944965;28;20618;-77
2023/07/17 06:30:10;;;;;;;6.30;5.70;;;24.80;99.90;;;;;;4947943;28;20211;-77
2023/07/17 06:32:37;;;;;;;5.93;4.60;;;25.10;99.90;;;;;;4951428;29;20206;-77
2023/07/17 06:35:06;;;;;;;5.53;3.70;;;25.10;99.90;;;;;;4940876;29;20206;-76
2023/07/17 06:37:33;;;;;;;4.77;4.27;;;25.30;99.90;;;;;;4939520;28;20206;-77
2023/07/17 06:40:00;;;;;;;4.63;3.57;;;25.40;99.90;;;;;;4938962;28;20253;-77
2023/07/17 06:42:26;;;;;;;7.33;6.63;;;25.50;99.90;;;;;;4940986;28;20223;-77
2023/07/17 06:44:53;;;;;;;7.60;7.00;;;25.90;99.90;;;;;;4944753;28;20289;-77
2023/07/17 06:47:20;;;;;;;7.47;6.57;;;26.40;99.90;;;;;;4934614;28;20204;-76
2023/07/17 06:49:47;;;;;;;7.87;7.07;;;26.90;99.90;;;;;;4949572;29;20717;-77
2023/07/17 06:52:15;;;;;;;7.20;6.60;;;27.50;99.90;;;;;;4945809;29;20668;-77
2023/07/17 06:54:42;;;;;;;7.80;7.03;;;27.60;99.90;;;;;;4939550;28;20219;-77
2023/07/17 06:57:08;;;;;;;6.70;6.10;;;27.70;99.90;;;;;;4938106;28;20253;-77
2023/07/17 06:59:35;;;;;;;6.77;6.17;;;28.10;99.90;;;;;;4929435;29;20231;-77
2023/07/17 07:02:02;;;;;;;6.77;6.03;;;28.40;99.90;;;;;;4933643;29;20246;-77
2023/07/17 07:04:29;;;;;;;6.53;5.93;;;28.60;99.90;;;;;;4934851;28;20203;-80
2023/07/17 07:06:56;;;;;;;6.03;5.50;;;28.90;99.90;;;;;;4941936;29;20226;-78
2023/07/17 07:09:24;;;;;;;8.43;5.90;;;29.00;99.90;;;;;;4947964;28;20288;-79
2023/07/17 07:11:51;;;;;;;6.13;5.63;;;29.20;99.90;;;;;;4945397;28;20198;-79
2023/07/17 07:14:17;;;;;;;7.53;5.70;;;29.20;99.90;;;;;;4950690;28;20279;-80
2023/07/17 07:16:44;;;;;;;6.93;6.20;;;29.20;99.90;;;;;;4947376;28;20614;-79
2023/07/17 07:19:11;;;;;;;7.83;7.00;;;29.30;99.90;;;;;;4952947;28;20214;-79
2023/07/17 07:21:38;;;;;;;7.70;6.90;;;29.30;99.90;;;;;;4943323;28;20200;-79
2023/07/17 07:24:05;;;;;;;7.90;7.20;;;29.50;99.90;;;;;;4950082;28;20195;-79
2023/07/17 07:26:36;;;;;;;7.95;7.05;;;29.60;99.90;;;;;;4943635;28;20447;-79
2023/07/17 07:29:03;;;;;;;6.50;5.90;;;29.60;99.90;;;;;;4936718;29;20462;-79
2023/07/17 07:31:30;;;;;;;9.07;7.50;;;29.80;99.90;;;;;;4930626;29;20285;-79
2023/07/17 07:33:56;;;;;;;7.23;5.90;;;29.80;99.90;;;;;;4930414;29;20199;-80
2023/07/17 07:36:25;;;;;;;7.63;5.47;;;29.90;99.90;;;;;;4929968;28;20211;-80
2023/07/17 07:38:52;;;;;;;6.97;6.27;;;29.80;99.90;;;;;;4929509;29;20227;-78
2023/07/17 07:41:19;;;;;;;9.03;5.90;;;29.80;99.90;;;;;;4945197;29;20266;-80
2023/07/17 07:43:47;;;;;;;8.67;7.30;;;30.10;99.90;;;;;;4931623;29;20279;-80
2023/07/17 07:46:14;;;;;;;7.80;7.10;;;30.20;99.80;;;;;;4932233;29;20210;-79
2023/07/17 07:48:41;;;;;;;7.60;6.90;;;30.20;99.90;;;;;;4933927;28;20756;-80
2023/07/17 07:51:08;;;;;;;7.63;6.93;;;30.20;99.90;;;;;;4933081;28;20424;-80
2023/07/17 07:53:35;;;;;;;7.73;6.97;;;30.50;99.40;;;;;;4932299;29;20223;-80
2023/07/17 07:56:02;;;;;;;7.90;7.27;;;30.20;97.90;;;;;;4941610;29;20195;-79
2023/07/17 07:58:29;;;;;;;8.97;7.87;;;30.40;99.90;;;;;;4936351;28;20234;-80
2023/07/17 08:00:57;;;;;;;8.57;7.77;;;30.50;97.20;;;;;;4937121;29;20221;-80
2023/07/17 08:03:24;;;;;;;7.97;7.17;;;30.50;97.80;;;;;;4941489;29;20263;-80
2023/07/17 08:05:50;;;;;;;8.33;7.63;;;30.40;97.40;;;;;;4937887;28;20321;-79
2023/07/17 08:08:17;;;;;;;8.23;7.40;;;30.60;97.00;;;;;;4935507;29;20204;-79
2023/07/17 08:10:44;;;;;;;8.37;7.57;;;30.70;97.70;;;;;;4941345;29;20262;-80
2023/07/17 08:13:11;;;;;;;8.30;7.57;;;30.80;98.20;;;;;;4939355;29;20199;-79
2023/07/17 08:15:37;;;;;;;8.23;7.00;;;30.50;97.50;;;;;;4938114;28;20199;-80
2023/07/17 08:18:06;;;;;;;9.53;6.67;;;30.10;97.10;;;;;;4938616;28;20202;-79
2023/07/17 08:20:32;;;;;;;7.40;6.70;;;29.30;96.80;;;;;;4933377;29;20356;-79
2023/07/17 08:22:59;;;;;;;7.13;6.43;;;29.10;98.00;;;;;;4937213;29;20227;-78
2023/07/17 08:25:26;;;;;;;7.20;6.17;;;28.90;97.40;;;;;;4941741;29;20258;-79
2023/07/17 08:27:53;;;;;;;6.57;5.80;;;29.00;98.00;;;;;;4940781;28;20208;-79
2023/07/17 08:30:20;;;;;;;6.53;5.77;;;29.40;97.80;;;;;;4941880;28;20215;-78
2023/07/17 08:32:47;;;;;;;7.13;5.87;;;29.80;96.90;;;;;;4937740;29;20203;-79
2023/07/17 08:35:15;;;;;;;6.73;6.03;;;29.90;98.30;;;;;;4943298;29;20207;-79
2023/07/17 08:37:42;;;;;;;7.13;5.87;;;30.00;95.60;;;;;;4952546;29;20253;-79
2023/07/17 08:40:11;;;;;;;6.27;5.50;;;30.10;95.30;;;;;;4948684;28;20248;-79
2023/07/17 08:42:40;;;;;;;6.63;6.03;;;30.10;95.20;;;;;;4941125;28;20222;-79
2023/07/17 08:45:09;;;;;;;7.10;6.50;;;30.20;94.70;;;;;;4941165;28;20219;-79
2023/07/17 08:47:37;;;;;;;7.43;6.40;;;30.40;95.30;;;;;;4932288;29;20658;-79
2023/07/17 08:50:07;;;;;;;7.30;6.57;;;30.60;95.60;;;;;;4934873;29;20293;-79
2023/07/17 08:52:35;;;;;;;6.73;5.60;;;30.70;94.90;;;;;;4933568;29;20195;-79
2023/07/17 08:55:02;;;;;;;7.80;5.90;;;31.00;95.20;;;;;;4939241;29;20207;-79
2023/07/17 08:57:32;;;;;;;8.40;7.50;;;30.80;93.40;;;;;;4935830;28;20203;-79
2023/07/17 08:59:58;;;;;;;10.03;7.83;;;31.00;93.10;;;;;;4932137;28;20324;-79
2023/07/17 09:02:26;;;;;;;7.90;7.20;;;31.20;94.80;;;;;;4940900;29;20272;-79
2023/07/17 09:04:52;;;;;;;8.03;7.23;;;31.50;94.80;;;;;;4937764;28;20243;-79
2023/07/17 09:07:19;;;;;;;8.27;6.70;;;31.60;93.00;;;;;;4932384;29;20200;-79
2023/07/17 09:09:53;;;;;;;8.13;6.60;;;30.80;91.80;;;;;;4945658;29;20257;-79
2023/07/17 09:12:20;;;;;;;8.00;6.30;;;30.10;93.20;;;;;;4944055;28;20191;-79
2023/07/17 09:14:49;;;;;;;7.83;6.30;;;29.90;94.00;;;;;;4949798;28;20208;-79
2023/07/17 09:17:16;;;;;;;7.37;6.67;;;29.80;93.70;;;;;;4946905;28;20255;-79
2023/07/17 09:19:43;;;;;;;7.20;5.83;;;29.60;94.30;;;;;;4951821;29;20233;-80
2023/07/17 09:22:10;;;;;;;6.13;5.63;;;30.00;94.90;;;;;;4938281;29;20197;-79
2023/07/17 09:24:38;;;;;;;7.63;6.07;;;30.40;93.60;;;;;;4937572;29;20231;-79
2023/07/17 09:27:07;;;;;;;6.75;6.00;;;31.00;94.50;;;;;;4950686;28;20434;-79
2023/07/17 09:29:34;;;;;;;6.67;5.97;;;31.40;92.20;;;;;;4943955;28;20717;-80
2023/07/17 09:32:15;;;;;;;8.55;7.78;;;31.40;93.10;;;;;;4938528;28;20211;-79
2023/07/17 09:34:41;;;;;;;8.60;7.70;;;31.50;91.70;;;;;;4939983;28;20206;-79
2023/07/17 09:37:09;;;;;;;8.20;7.50;;;31.70;92.00;;;;;;4951352;28;20654;-80
2023/07/17 09:39:38;;;;;;;7.07;6.47;;;31.90;91.80;;;;;;4945925;28;20216;-79
2023/07/17 09:42:22;;;;;;;7.50;6.30;;;32.00;91.20;;;;;;4943074;29;20211;-79
2023/07/17 09:44:51;;;;;;;7.10;6.30;;;31.90;91.20;;;;;;4949276;28;20514;-79
2023/07/17 09:47:19;;;;;;;6.78;6.18;;;32.10;91.60;;;;;;4954477;28;20441;-80
2023/07/17 09:49:48;;;;;;;7.43;6.77;;;32.30;90.20;;;;;;4953416;29;20277;-79
2023/07/17 09:52:15;;;;;;;8.80;7.43;;;32.50;91.80;;;;;;4938460;28;20210;-79
2023/07/17 09:54:45;;;;;;;7.60;7.00;;;32.50;89.60;;;;;;4952802;28;20201;-80
2023/07/17 09:57:22;;;;;;;7.47;6.78;;;32.20;86.80;;;;;;4943559;28;20839;-79
2023/07/17 09:59:50;;;;;;;6.35;5.80;;;31.40;86.80;;;;;;4946728;28;20443;-80
2023/07/17 10:02:19;;;;;;;6.78;6.10;;;31.60;89.80;;;;;;4941501;28;20254;-80
2023/07/17 10:04:52;;;;;;;6.78;6.10;;;31.70;89.20;;;;;;4939788;29;20228;-80
2023/07/17 10:07:20;;;;;;;7.72;6.93;;;31.60;89.30;;;;;;4951173;28;20262;-79
2023/07/17 10:09:49;;;;;;;7.15;6.45;;;31.50;89.80;;;;;;4949807;28;20270;-80
2023/07/17 10:12:18;;;;;;;11.02;6.82;;;31.70;88.60;;;;;;4951755;28;20423;-79
2023/07/17 10:14:47;;;;;;;7.78;7.07;;;31.60;87.90;;;;;;4947319;29;20495;-79
2023/07/17 10:17:30;;;;;;;8.60;7.80;;;31.70;86.90;;;;;;4936071;28;20335;-79
2023/07/17 10:19:59;;;;;;;7.68;6.97;;;31.70;89.20;;;;;;4936229;29;20730;-79
2023/07/17 10:22:33;;;;;;;6.68;6.03;;;31.80;88.40;;;;;;4937973;29;20266;-79
2023/07/17 10:25:10;;;;;;;7.70;6.13;;;31.80;85.60;;;;;;4933918;28;20219;-79
2023/07/17 10:27:39;;;;;;;7.23;6.30;;;31.70;88.80;;;;;;4939719;29;20235;-79
2023/07/17 10:30:24;;;;;;;6.37;5.63;;;31.60;86.30;;;;;;4941740;28;20716;-78
2023/07/17 10:33:13;;;;;;;7.83;6.33;;;31.60;87.90;;;;;;4945322;29;20670;-78
2023/07/17 10:35:50;;;;;;;6.60;6.00;;;31.00;87.80;;;;;;4950036;29;20194;-83
2023/07/17 10:38:18;;;;;;;6.43;5.83;;;30.80;90.50;;;;;;4943832;28;20202;-82
2023/07/17 10:40:46;;;;;;;8.87;6.53;;;30.90;87.50;;;;;;4943215;28;20206;-83
2023/07/17 10:43:19;;;;;;;6.90;6.07;;;30.90;89.40;;;;;;4926100;29;20264;-84
2023/07/17 10:45:48;;;;;;;6.50;5.90;;;30.80;89.20;;;;;;4947357;28;20199;-83
2023/07/17 10:48:15;;;;;;;6.63;6.03;;;31.00;88.10;;;;;;4944701;28;20190;-83
2023/07/17 10:50:50;;;;;;;7.70;6.90;;;31.10;89.20;;;;;;4947080;28;20196;-84
2023/07/17 10:53:17;;;;;;;6.17;5.67;;;31.20;86.40;;;;;;4933227;29;20208;-80
2023/07/17 10:55:46;;;;;;;6.60;6.00;;;31.10;90.20;;;;;;4931367;29;20674;-80
2023/07/17 10:58:14;;;;;;;6.83;5.70;;;31.10;90.00;;;;;;4935284;29;20199;-80
2023/07/17 11:00:42;;;;;;;6.83;6.00;;;31.00;87.80;;;;;;4953473;28;20201;-80
2023/07/17 11:03:09;;;;;;;6.23;5.73;;;31.00;88.60;;;;;;4939878;28;20241;-81
2023/07/17 11:05:39;;;;;;;7.20;6.60;;;31.30;88.60;;;;;;4934006;28;20247;-81
2023/07/17 11:08:08;;;;;;;7.87;6.83;;;31.20;89.00;;;;;;4953965;29;20211;-81
2023/07/17 11:10:36;;;;;;;7.90;7.10;;;31.20;87.40;;;;;;4949474;28;20222;-81
2023/07/17 11:13:04;;;;;;;6.67;6.07;;;30.70;88.90;;;;;;4937678;29;20218;-81
2023/07/17 11:15:33;;;;;;;6.77;6.07;;;30.20;90.40;;;;;;4950480;28;20197;-78
2023/07/17 11:18:01;;;;;;;7.50;6.80;;;29.60;90.20;;;;;;4947828;28;20250;-77
2023/07/17 11:20:28;;;;;;;8.97;7.00;;;29.30;90.50;;;;;;4947630;28;20782;-77
2023/07/17 11:22:55;;;;;;;7.33;6.63;;;29.30;90.90;;;;;;4943908;29;20231;-78
2023/07/17 11:25:23;;;;;;;8.23;7.43;;;29.30;91.50;;;;;;4957051;28;20562;-77
2023/07/17 11:27:50;;;;;;;8.10;6.47;;;29.10;90.50;;;;;;4951785;29;20194;-78
2023/07/17 11:30:19;;;;;;;6.63;6.03;;;28.90;91.00;;;;;;4930718;29;20655;-78
2023/07/17 11:33:00;;;;;;;8.30;7.60;;;29.10;91.10;;;;;;4940967;29;20242;-77
2023/07/17 11:35:41;;;;;;;7.93;6.30;;;29.30;91.60;;;;;;4945470;29;20634;-79
2023/07/17 11:38:08;;;;;;;7.13;6.17;;;29.90;91.40;;;;;;4960828;29;20283;-79
2023/07/17 11:40:50;;;;;;;8.13;7.40;;;29.90;90.90;;;;;;4954655;28;20198;-79
2023/07/17 11:43:23;;;;;;;7.60;7.00;;;30.10;91.10;;;;;;4960355;28;20206;-78
2023/07/17 11:45:50;;;;;;;8.50;7.67;;;30.20;90.90;;;;;;4952386;28;20210;-79
2023/07/17 11:48:19;;;;;;;7.20;6.53;;;29.80;91.30;;;;;;4953140;28;20222;-78
2023/07/17 11:50:45;;;;;;;7.70;7.00;;;29.70;92.20;;;;;;4949253;28;20215;-79
2023/07/17 11:53:14;;;;;;;7.07;6.47;;;29.70;91.10;;;;;;4957893;29;20198;-79
2023/07/17 11:55:42;;;;;;;8.00;7.20;;;29.80;91.70;;;;;;4948696;29;20194;-79
2023/07/17 11:58:16;;;;;;;7.70;7.00;;;29.60;91.20;;;;;;4961052;29;20198;-79
2023/07/17 12:00:43;;;;;;;7.70;6.87;;;29.50;90.90;;;;;;4954114;29;20212;-79
2023/07/17 12:03:11;;;;;;;7.60;6.90;;;29.40;91.00;;;;;;4941522;28;20203;-79
2023/07/17 12:05:39;;;;;;;6.57;4.30;;;29.40;91.20;;;;;;4945417;28;20194;-79
2023/07/17 12:08:07;;;;;;;5.53;4.20;;;29.40;92.40;;;;;;4949532;28;20211;-79
2023/07/17 12:10:34;;;;;;;7.43;6.13;;;29.50;93.00;;;;;;4948786;28;20222;-82
2023/07/17 12:13:02;;;;;;;6.70;6.10;;;29.50;92.20;;;;;;4947354;28;20271;-79
2023/07/17 12:15:30;;;;;;;6.43;5.83;;;29.40;91.90;;;;;;4955679;28;20730;-80
2023/07/17 12:17:57;;;;;;;6.43;5.60;;;29.30;92.20;;;;;;4948195;29;20265;-79
2023/07/17 12:20:24;;;;;;;8.87;6.50;;;29.20;91.70;;;;;;4960998;28;20238;-79
2023/07/17 12:22:53;;;;;;;7.63;6.93;;;29.00;93.30;;;;;;4946702;29;20207;-83
2023/07/17 12:25:21;;;;;;;5.20;4.30;;;28.90;92.20;;;;;;4947656;28;20222;-79
2023/07/17 12:27:48;;;;;;;5.33;4.60;;;28.80;93.00;;;;;;4950507;28;20206;-77
2023/07/17 12:30:16;;;;;;;5.40;4.03;;;28.80;94.30;;;;;;4943271;28;20227;-77
2023/07/17 12:32:43;;;;;;;7.50;6.90;;;29.00;92.70;;;;;;4948452;28;20196;-79
2023/07/17 12:35:10;;;;;;;7.67;7.00;;;29.10;93.00;;;;;;4957334;29;20199;-79
2023/07/17 12:37:37;;;;;;;8.20;7.40;;;29.40;93.30;;;;;;4945466;29;20195;-79
2023/07/17 12:40:07;;;;;;;8.10;7.13;;;29.60;92.90;;;;;;4951999;28;20212;-79
2023/07/17 12:42:34;;;;;;;5.33;4.83;;;29.80;91.70;;;;;;4948682;28;20248;-79
2023/07/17 12:45:00;;;;;;;7.30;6.53;;;30.00;92.40;;;;;;4960406;29;20635;-79
2023/07/17 12:47:27;;;;;;;7.17;4.93;;;30.10;91.80;;;;;;4949708;29;20198;-80
2023/07/17 12:49:54;;;;;;;7.97;7.20;;;30.20;91.30;;;;;;4958382;29;20231;-79